createdAt,value
2023-01-15T00:01:21.562Z,1.60
2023-01-15T00:03:51.589Z,1.50
2023-01-15T00:06:19.995Z,1.07
2023-01-15T00:08:48.958Z,2.13
2023-01-15T00:11:18.042Z,1.40
2023-01-15T00:13:46.797Z,1.73
2023-01-15T00:16:16.474Z,2.10
2023-01-15T00:18:45.071Z,3.30
2023-01-15T00:21:15.139Z,1.67
2023-01-15T00:24:01.341Z,1.97
2023-01-15T00:26:49.031Z,2.17
2023-01-15T00:29:17.816Z,2.20
2023-01-15T00:31:52.251Z,1.17
2023-01-15T00:34:20.657Z,0.70
2023-01-15T00:36:50.376Z,1.00
2023-01-15T00:39:18.957Z,1.17
2023-01-15T00:41:48.270Z,1.27
2023-01-15T00:44:17.123Z,1.23
2023-01-15T00:46:45.575Z,2.93
2023-01-15T00:49:14.866Z,3.33
2023-01-15T00:51:43.394Z,3.60
2023-01-15T00:54:14.580Z,1.50
2023-01-15T00:56:43.030Z,2.93
2023-01-15T00:59:11.493Z,2.43
2023-01-15T01:01:40.019Z,1.67
2023-01-15T01:04:09.049Z,1.53
2023-01-15T01:06:37.511Z,2.33
2023-01-15T01:09:06.092Z,1.67
2023-01-15T01:11:37.358Z,0.70
2023-01-15T01:14:05.926Z,0.77
2023-01-15T01:16:37.490Z,0.63
2023-01-15T01:19:07.152Z,1.37
2023-01-15T01:21:35.698Z,0.87
2023-01-15T01:24:04.168Z,0.97
2023-01-15T01:26:33.147Z,1.40
2023-01-15T01:29:02.900Z,2.00
2023-01-15T01:31:31.563Z,0.90
2023-01-15T01:34:01.753Z,1.93
2023-01-15T01:36:31.177Z,2.63
2023-01-15T01:39:00.506Z,1.73
2023-01-15T01:41:29.075Z,1.00
2023-01-15T01:43:59.339Z,1.50
2023-01-15T01:46:30.357Z,2.53
2023-01-15T01:49:01.092Z,2.47
2023-01-15T01:51:31.802Z,1.93
2023-01-15T01:54:02.127Z,2.30
2023-01-15T01:56:31.149Z,2.80
2023-01-15T01:58:59.765Z,1.53
2023-01-15T02:01:29.771Z,1.37
2023-01-15T02:03:58.404Z,0.53
2023-01-15T02:06:27.821Z,1.17
2023-01-15T02:08:56.634Z,0.90
2023-01-15T02:11:25.645Z,1.00
2023-01-15T02:13:57.371Z,0.90
2023-01-15T02:16:27.681Z,1.17
2023-01-15T02:19:01.269Z,1.10
2023-01-15T02:21:37.203Z,1.67
2023-01-15T02:24:08.507Z,2.00
2023-01-15T02:26:52.653Z,2.67
2023-01-15T02:29:26.074Z,2.60
2023-01-15T02:31:54.710Z,1.30
2023-01-15T02:34:27.319Z,1.23
2023-01-15T02:36:59.140Z,1.50
2023-01-15T02:39:30.441Z,2.50
2023-01-15T02:42:03.917Z,1.80
2023-01-15T02:44:38.974Z,4.07
2023-01-15T02:47:08.578Z,1.27
2023-01-15T02:49:38.464Z,1.70
2023-01-15T02:52:10.285Z,1.17
2023-01-15T02:54:41.891Z,1.07
2023-01-15T02:57:12.680Z,0.80
2023-01-15T02:59:42.959Z,1.13
2023-01-15T03:02:13.399Z,1.30
2023-01-15T03:04:43.628Z,1.47
2023-01-15T03:07:14.656Z,1.60
2023-01-15T03:09:44.442Z,2.40
2023-01-15T03:12:17.825Z,1.33
2023-01-15T03:14:51.808Z,2.20
2023-01-15T03:17:21.665Z,1.57
2023-01-15T03:19:55.207Z,1.33
2023-01-15T03:22:27.788Z,0.67
2023-01-15T03:24:57.337Z,1.40
2023-01-15T03:27:27.723Z,1.37
2023-01-15T03:30:01.078Z,1.83
2023-01-15T03:32:31.288Z,2.10
2023-01-15T03:35:00.416Z,1.87
2023-01-15T03:37:30.291Z,1.00
2023-01-15T03:40:00.449Z,2.77
2023-01-15T03:42:37.433Z,1.00
2023-01-15T03:45:08.730Z,0.83
2023-01-15T03:47:44.544Z,1.27
2023-01-15T03:50:18.168Z,1.37
2023-01-15T03:52:50.052Z,1.33
2023-01-15T03:55:22.213Z,1.73
2023-01-15T03:58:06.049Z,1.20
2023-01-15T04:00:40.329Z,1.03
2023-01-15T04:03:11.124Z,1.03
2023-01-15T04:05:41.537Z,1.17
2023-01-15T04:08:10.623Z,1.00
2023-01-15T04:10:39.029Z,1.10
2023-01-15T04:13:12.691Z,1.10
2023-01-15T04:15:43.182Z,1.10
2023-01-15T04:18:11.721Z,3.27
2023-01-15T04:20:40.142Z,1.10
2023-01-15T04:23:09.164Z,1.13
2023-01-15T04:25:37.558Z,1.33
2023-01-15T04:28:06.042Z,1.03
2023-01-15T04:30:35.801Z,0.60
2023-01-15T04:33:04.256Z,1.17
2023-01-15T04:35:32.667Z,0.60
2023-01-15T04:38:02.664Z,0.87
2023-01-15T04:40:48.675Z,0.80
2023-01-15T04:43:49.217Z,1.10
2023-01-15T04:46:22.620Z,1.27
2023-01-15T04:48:50.684Z,1.00
2023-01-15T04:51:19.060Z,1.57
2023-01-15T04:53:47.176Z,1.20
2023-01-15T04:56:15.232Z,1.50
2023-01-15T04:58:43.584Z,1.00
2023-01-15T05:01:12.995Z,1.20
2023-01-15T05:03:43.004Z,1.53
2023-01-15T05:06:11.702Z,0.87
2023-01-15T05:08:39.859Z,1.80
2023-01-15T05:11:08.940Z,1.87
2023-01-15T05:13:37.354Z,1.77
2023-01-15T05:16:12.977Z,1.33
2023-01-15T05:18:42.921Z,1.10
2023-01-15T05:21:15.485Z,0.60
2023-01-15T05:23:43.882Z,0.87
2023-01-15T05:26:12.318Z,0.73
2023-01-15T05:28:40.835Z,2.00
2023-01-15T05:31:10.166Z,0.60
2023-01-15T05:33:39.188Z,0.80
2023-01-15T05:36:10.127Z,0.80
2023-01-15T05:38:38.978Z,0.80
2023-01-15T05:41:28.670Z,0.70
2023-01-15T05:43:58.216Z,0.73
2023-01-15T05:46:26.687Z,0.60
2023-01-15T05:48:55.123Z,0.90
2023-01-15T05:51:24.967Z,1.53
2023-01-15T05:53:52.991Z,0.80
2023-01-15T05:56:21.123Z,0.70
2023-01-15T05:58:49.477Z,0.57
2023-01-15T06:01:17.886Z,0.73
2023-01-15T06:03:47.156Z,0.90
2023-01-15T06:06:16.388Z,0.53
2023-01-15T06:08:46.760Z,4.80
2023-01-15T06:11:15.509Z,0.60
2023-01-15T06:13:43.868Z,0.60
2023-01-15T06:16:13.071Z,2.30
2023-01-15T06:18:41.809Z,0.70
2023-01-15T06:21:11.310Z,1.00
2023-01-15T06:23:40.206Z,1.50
2023-01-15T06:26:12.220Z,0.80
2023-01-15T06:28:40.605Z,1.37
2023-01-15T06:31:09.262Z,0.50
2023-01-15T06:33:37.652Z,1.03
2023-01-15T06:36:06.325Z,0.63
2023-01-15T06:38:35.152Z,1.23
2023-01-15T06:41:04.069Z,2.30
2023-01-15T06:43:51.696Z,1.80
2023-01-15T06:46:34.059Z,1.40
2023-01-15T06:49:02.451Z,1.20
2023-01-15T06:51:31.308Z,1.00
2023-01-15T06:54:00.896Z,0.50
2023-01-15T06:56:29.311Z,0.70
2023-01-15T06:58:59.077Z,0.90
2023-01-15T07:01:30.936Z,2.40
2023-01-15T07:03:59.493Z,1.37
2023-01-15T07:06:27.964Z,0.70
2023-01-15T07:08:56.329Z,0.60
2023-01-15T07:11:24.919Z,1.20
2023-01-15T07:14:05.786Z,2.10
2023-01-15T07:16:35.878Z,0.50
2023-01-15T07:19:04.453Z,0.83
2023-01-15T07:21:33.052Z,2.13
2023-01-15T07:24:01.665Z,0.60
2023-01-15T07:26:30.112Z,0.90
2023-01-15T07:28:58.127Z,0.60
2023-01-15T07:31:26.523Z,0.50
2023-01-15T07:33:57.095Z,0.60
2023-01-15T07:36:27.031Z,2.30
2023-01-15T07:38:55.834Z,0.50
2023-01-15T07:41:41.911Z,0.80
2023-01-15T07:44:30.279Z,0.60
2023-01-15T07:47:16.167Z,2.30
2023-01-15T07:49:46.658Z,0.60
2023-01-15T07:52:15.455Z,1.30
2023-01-15T07:54:44.094Z,1.13
2023-01-15T07:57:12.880Z,0.60
2023-01-15T07:59:41.223Z,0.50
2023-01-15T08:02:09.698Z,0.83
2023-01-15T08:04:38.129Z,1.70
2023-01-15T08:07:08.122Z,0.60
2023-01-15T08:09:36.870Z,0.73
2023-01-15T08:12:23.094Z,2.00
2023-01-15T08:15:09.545Z,0.53
2023-01-15T08:17:38.533Z,2.53
2023-01-15T08:20:08.229Z,1.10
2023-01-15T08:22:38.579Z,0.53
2023-01-15T08:25:07.522Z,0.50
2023-01-15T08:27:36.004Z,1.20
2023-01-15T08:30:04.653Z,1.37
2023-01-15T08:32:33.191Z,0.47
2023-01-15T08:35:01.591Z,3.10
2023-01-15T08:37:29.967Z,0.60
2023-01-15T08:39:59.694Z,0.90
2023-01-15T08:42:28.348Z,0.57
2023-01-15T08:44:56.771Z,1.00
2023-01-15T08:47:25.243Z,0.97
2023-01-15T08:49:53.670Z,0.77
2023-01-15T08:52:22.080Z,1.83
2023-01-15T08:54:50.703Z,0.50
2023-01-15T08:57:20.443Z,1.30
2023-01-15T08:59:48.951Z,2.20
2023-01-15T09:02:17.747Z,2.57
2023-01-15T09:04:46.269Z,1.00
2023-01-15T09:07:14.717Z,1.07
2023-01-15T09:09:43.097Z,0.80
2023-01-15T09:12:11.433Z,0.70
2023-01-15T09:14:57.769Z,0.53
2023-01-15T09:17:29.479Z,0.50
2023-01-15T09:19:57.907Z,0.87
2023-01-15T09:22:30.149Z,2.13
2023-01-15T09:24:58.368Z,0.63
2023-01-15T09:27:26.768Z,0.80
2023-01-15T09:29:56.983Z,0.93
2023-01-15T09:32:25.075Z,0.70
2023-01-15T09:34:54.379Z,4.10
2023-01-15T09:37:22.536Z,1.97
2023-01-15T09:39:50.677Z,0.43
2023-01-15T09:42:34.650Z,0.80
2023-01-15T09:45:25.168Z,0.50
2023-01-15T09:48:22.804Z,2.03
2023-01-15T09:51:03.271Z,0.43
2023-01-15T09:53:55.375Z,0.40
2023-01-15T09:56:27.750Z,0.57
2023-01-15T09:58:58.270Z,0.50
2023-01-15T10:01:30.952Z,0.40
2023-01-15T10:04:05.481Z,0.60
2023-01-15T10:06:40.866Z,0.63
2023-01-15T10:09:15.726Z,0.60
2023-01-15T10:12:04.543Z,2.03
2023-01-15T10:14:48.098Z,0.60
2023-01-15T10:17:23.659Z,0.63
2023-01-15T10:19:53.031Z,0.90
2023-01-15T10:22:40.255Z,1.17
2023-01-15T10:25:16.512Z,0.50
2023-01-15T10:27:48.966Z,0.53
2023-01-15T10:30:19.196Z,0.80
2023-01-15T10:33:02.017Z,0.53
2023-01-15T10:35:43.116Z,0.77
2023-01-15T10:38:21.423Z,0.90
2023-01-15T10:41:14.697Z,0.93
2023-01-15T10:43:51.892Z,0.40
2023-01-15T10:46:25.255Z,0.80
2023-01-15T10:48:58.540Z,2.60
2023-01-15T10:51:31.508Z,0.80
2023-01-15T10:54:04.332Z,0.87
2023-01-15T10:56:36.746Z,2.03
2023-01-15T10:59:14.124Z,0.90
2023-01-15T11:01:42.490Z,0.60
2023-01-15T11:04:13.890Z,1.30
2023-01-15T11:06:42.936Z,1.50
2023-01-15T11:09:19.380Z,1.43
2023-01-15T11:12:07.363Z,2.57
2023-01-15T11:14:58.128Z,1.30
2023-01-15T11:17:47.177Z,1.20
2023-01-15T11:20:23.194Z,1.03
2023-01-15T11:22:52.100Z,1.07
2023-01-15T11:25:27.566Z,2.67
2023-01-15T11:27:56.408Z,2.03
2023-01-15T11:30:29.103Z,1.93
2023-01-15T11:32:59.731Z,2.20
2023-01-15T11:35:29.674Z,1.30
2023-01-15T11:38:05.326Z,2.53
2023-01-15T11:40:33.777Z,1.77
2023-01-15T11:43:19.919Z,2.37
2023-01-15T11:46:06.021Z,2.40
2023-01-15T11:48:54.354Z,3.77
2023-01-15T11:51:24.164Z,1.60
2023-01-15T11:53:55.962Z,1.43
2023-01-15T11:56:26.068Z,3.00
2023-01-15T11:58:56.027Z,2.63
2023-01-15T12:01:26.766Z,1.83
2023-01-15T12:03:55.619Z,1.30
2023-01-15T12:06:26.892Z,1.53
2023-01-15T12:08:59.466Z,1.20
2023-01-15T12:11:33.337Z,2.10
2023-01-15T12:14:10.800Z,1.93
2023-01-15T12:16:43.112Z,2.87
2023-01-15T12:19:14.334Z,1.30
2023-01-15T12:21:58.488Z,1.53
2023-01-15T12:24:45.212Z,2.50
2023-01-15T12:27:21.824Z,1.73
2023-01-15T12:29:53.982Z,1.37
2023-01-15T12:32:24.953Z,2.73
2023-01-15T12:34:59.591Z,1.90
2023-01-15T12:37:31.242Z,3.37
2023-01-15T12:40:00.981Z,4.10
2023-01-15T12:42:47.552Z,3.13
2023-01-15T12:45:18.136Z,1.07
2023-01-15T12:47:51.090Z,2.87
2023-01-15T12:50:37.548Z,2.23
2023-01-15T12:53:11.516Z,1.57
2023-01-15T12:55:42.860Z,1.63
2023-01-15T12:58:15.210Z,3.00
2023-01-15T13:00:45.319Z,2.07
2023-01-15T13:03:25.428Z,2.07
2023-01-15T13:05:55.226Z,1.53
2023-01-15T13:08:27.682Z,2.23
2023-01-15T13:10:56.331Z,1.70
2023-01-15T13:13:25.721Z,2.17
2023-01-15T13:16:03.149Z,2.30
2023-01-15T13:18:37.718Z,1.90
2023-01-15T13:21:10.952Z,1.50
2023-01-15T13:23:50.201Z,1.20
2023-01-15T13:26:27.162Z,1.37
2023-01-15T13:29:02.988Z,1.83
2023-01-15T13:31:40.357Z,0.90
2023-01-15T13:34:15.880Z,1.03
2023-01-15T13:36:46.102Z,2.13
2023-01-15T13:39:18.252Z,1.73
2023-01-15T13:42:09.804Z,1.37
2023-01-15T13:44:39.292Z,1.30
2023-01-15T13:47:08.468Z,1.43
2023-01-15T13:49:38.920Z,3.83
2023-01-15T13:52:08.823Z,2.47
2023-01-15T13:54:42.887Z,1.23
2023-01-15T13:57:11.433Z,1.30
2023-01-15T13:59:44.421Z,0.70
2023-01-15T14:02:25.118Z,1.30
2023-01-15T14:04:53.960Z,1.40
2023-01-15T14:07:23.731Z,0.80
2023-01-15T14:09:53.433Z,1.93
2023-01-15T14:12:42.606Z,1.00
2023-01-15T14:15:36.292Z,2.40
2023-01-15T14:18:31.984Z,3.33
2023-01-15T14:21:21.634Z,2.53
2023-01-15T14:24:02.289Z,1.87
2023-01-15T14:26:44.381Z,0.80
2023-01-15T14:29:57.892Z,1.20
2023-01-15T14:32:36.737Z,1.70
2023-01-15T14:35:05.777Z,1.53
2023-01-15T14:37:39.300Z,3.33
2023-01-15T14:40:18.267Z,2.30
2023-01-15T14:43:04.721Z,1.37
2023-01-15T14:45:36.347Z,2.30
2023-01-15T14:48:06.216Z,1.87
2023-01-15T14:50:39.304Z,1.77
2023-01-15T14:53:20.295Z,1.90
2023-01-15T14:55:51.967Z,2.10
2023-01-15T14:58:37.229Z,1.83
2023-01-15T15:01:15.536Z,2.40
2023-01-15T15:03:51.125Z,2.30
2023-01-15T15:06:19.692Z,1.93
2023-01-15T15:08:48.458Z,1.50
2023-01-15T15:11:33.980Z,2.47
2023-01-15T15:14:06.659Z,3.43
2023-01-15T15:16:37.203Z,3.30
2023-01-15T15:19:08.739Z,2.23
2023-01-15T15:21:39.695Z,6.30
2023-01-15T15:24:13.211Z,1.43
2023-01-15T15:26:41.873Z,2.70
2023-01-15T15:29:14.921Z,1.23
2023-01-15T15:31:45.373Z,1.00
2023-01-15T15:34:17.766Z,1.57
2023-01-15T15:36:47.485Z,1.30
2023-01-15T15:39:21.411Z,1.03
2023-01-15T15:42:09.152Z,1.23
2023-01-15T15:44:59.903Z,0.90
2023-01-15T15:47:46.516Z,0.63
2023-01-15T15:50:21.787Z,0.87
2023-01-15T15:52:50.849Z,1.27
2023-01-15T15:55:19.928Z,3.90
2023-01-15T15:57:51.157Z,3.83
2023-01-15T16:00:24.948Z,2.77
2023-01-15T16:02:54.810Z,2.00
2023-01-15T16:05:24.683Z,1.53
2023-01-15T16:07:53.174Z,1.50
2023-01-15T16:10:26.696Z,1.30
2023-01-15T16:12:55.803Z,1.60
2023-01-15T16:15:27.032Z,1.47
2023-01-15T16:17:55.657Z,2.20
2023-01-15T16:20:24.417Z,2.07
2023-01-15T16:22:56.496Z,1.67
2023-01-15T16:25:26.300Z,3.00
2023-01-15T16:27:54.993Z,1.60
2023-01-15T16:30:23.504Z,2.97
2023-01-15T16:32:55.944Z,3.30
2023-01-15T16:35:26.608Z,3.00
2023-01-15T16:37:56.702Z,1.93
2023-01-15T16:40:28.340Z,1.40
2023-01-15T16:43:08.678Z,1.93
2023-01-15T16:45:37.959Z,3.57
2023-01-15T16:48:27.446Z,2.23
2023-01-15T16:50:55.912Z,1.60
2023-01-15T16:53:31.741Z,3.03
2023-01-15T16:56:01.481Z,2.67
2023-01-15T16:58:37.487Z,2.40
2023-01-15T17:01:20.925Z,3.17
2023-01-15T17:03:51.181Z,3.70
2023-01-15T17:06:22.304Z,2.87
2023-01-15T17:08:51.025Z,3.73
2023-01-15T17:11:21.180Z,2.60
2023-01-15T17:13:49.939Z,2.53
2023-01-15T17:16:20.192Z,2.30
2023-01-15T17:18:49.425Z,2.50
2023-01-15T17:21:22.929Z,3.57
2023-01-15T17:23:51.815Z,3.23
2023-01-15T17:26:21.135Z,1.30
2023-01-15T17:28:49.849Z,2.73
2023-01-15T17:31:21.935Z,3.37
2023-01-15T17:33:50.845Z,1.93
2023-01-15T17:36:21.025Z,4.03
2023-01-15T17:38:49.892Z,4.50
2023-01-15T17:41:20.509Z,3.43
2023-01-15T17:43:49.041Z,2.27
2023-01-15T17:46:18.427Z,2.63
2023-01-15T17:48:46.839Z,4.70
2023-01-15T17:51:16.223Z,4.23
2023-01-15T17:53:47.213Z,2.97
2023-01-15T17:56:33.520Z,4.40
2023-01-15T17:59:19.361Z,4.90
2023-01-15T18:02:06.787Z,3.93
2023-01-15T18:04:56.841Z,2.67
2023-01-15T18:07:26.664Z,3.23
2023-01-15T18:09:57.367Z,4.33
2023-01-15T18:12:26.105Z,2.93
2023-01-15T18:14:54.563Z,3.53
2023-01-15T18:17:23.016Z,2.77
2023-01-15T18:19:51.463Z,4.60
2023-01-15T18:22:20.127Z,3.90
2023-01-15T18:24:48.493Z,2.80
2023-01-15T18:27:18.254Z,4.13
2023-01-15T18:29:46.712Z,3.33
2023-01-15T18:32:15.123Z,4.43
2023-01-15T18:34:43.296Z,4.33
2023-01-15T18:37:13.211Z,7.47
2023-01-15T18:39:41.355Z,5.17
2023-01-15T18:42:28.478Z,4.90
2023-01-15T18:45:15.306Z,2.70
2023-01-15T18:47:43.732Z,4.10
2023-01-15T18:50:12.600Z,4.50
2023-01-15T18:52:51.152Z,3.23
2023-01-15T18:55:20.149Z,5.13
2023-01-15T18:57:49.859Z,4.47
2023-01-15T19:00:20.149Z,4.80
2023-01-15T19:02:48.904Z,4.93
2023-01-15T19:05:17.455Z,3.27
2023-01-15T19:07:46.232Z,4.40
2023-01-15T19:10:15.138Z,2.13
2023-01-15T19:12:43.791Z,3.20
2023-01-15T19:15:32.398Z,6.20
2023-01-15T19:18:19.656Z,2.73
2023-01-15T19:20:48.162Z,3.90
2023-01-15T19:23:16.652Z,4.50
2023-01-15T19:25:46.341Z,3.70
2023-01-15T19:28:15.916Z,2.13
2023-01-15T19:31:04.417Z,3.93
2023-01-15T19:33:34.193Z,3.13
2023-01-15T19:36:02.597Z,3.67
2023-01-15T19:38:31.038Z,3.80
2023-01-15T19:41:19.821Z,7.17
2023-01-15T19:44:05.828Z,4.57
2023-01-15T19:46:51.811Z,5.57
2023-01-15T19:49:42.056Z,4.97
2023-01-15T19:52:28.484Z,4.07
2023-01-15T19:54:57.018Z,3.53
2023-01-15T19:57:26.085Z,2.70
2023-01-15T19:59:54.656Z,1.83
2023-01-15T20:02:23.144Z,4.07
2023-01-15T20:04:52.937Z,3.07
2023-01-15T20:07:22.266Z,5.20
2023-01-15T20:09:50.619Z,3.87
2023-01-15T20:12:36.397Z,3.13
2023-01-15T20:15:04.845Z,2.43
2023-01-15T20:17:33.206Z,2.70
2023-01-15T20:20:02.960Z,3.77
2023-01-15T20:22:31.617Z,3.80
2023-01-15T20:25:00.010Z,3.53
2023-01-15T20:27:28.411Z,3.50
2023-01-15T20:29:56.999Z,5.20
2023-01-15T20:32:25.372Z,3.43
2023-01-15T20:34:53.821Z,3.33
2023-01-15T20:37:23.971Z,2.57
2023-01-15T20:39:52.401Z,4.60
2023-01-15T20:42:38.339Z,5.40
2023-01-15T20:45:11.141Z,1.63
2023-01-15T20:48:06.255Z,4.20
2023-01-15T20:50:36.155Z,3.03
2023-01-15T20:53:07.827Z,2.83
2023-01-15T20:55:53.879Z,4.03
2023-01-15T20:58:24.293Z,4.50
2023-01-15T21:00:52.817Z,2.90
2023-01-15T21:03:21.482Z,2.67
2023-01-15T21:05:50.240Z,3.03
2023-01-15T21:08:20.958Z,3.73
2023-01-15T21:10:53.203Z,2.13
2023-01-15T21:13:22.796Z,4.93
2023-01-15T21:15:56.980Z,2.97
2023-01-15T21:18:25.473Z,2.97
2023-01-15T21:20:53.941Z,1.60
2023-01-15T21:23:24.172Z,2.50
2023-01-15T21:25:52.617Z,3.37
2023-01-15T21:28:21.236Z,2.97
2023-01-15T21:30:49.598Z,3.10
2023-01-15T21:33:17.978Z,3.00
2023-01-15T21:35:46.372Z,2.70
2023-01-15T21:38:14.801Z,2.83
2023-01-15T21:40:44.602Z,2.67
2023-01-15T21:43:30.748Z,2.10
2023-01-15T21:46:05.963Z,1.70
2023-01-15T21:48:34.603Z,4.77
2023-01-15T21:51:06.097Z,3.13
2023-01-15T21:53:34.531Z,3.03
2023-01-15T21:56:04.887Z,4.60
2023-01-15T21:58:37.440Z,2.43
2023-01-15T22:01:09.404Z,4.73
2023-01-15T22:03:37.837Z,1.97
2023-01-15T22:06:06.417Z,2.17
2023-01-15T22:08:35.396Z,2.90
2023-01-15T22:11:09.730Z,6.47
2023-01-15T22:13:40.390Z,2.77
2023-01-15T22:16:09.115Z,3.63
2023-01-15T22:18:37.449Z,4.10
2023-01-15T22:21:06.916Z,3.93
2023-01-15T22:23:35.681Z,4.87
2023-01-15T22:26:04.116Z,2.47
2023-01-15T22:28:33.933Z,2.50
2023-01-15T22:31:06.354Z,2.87
2023-01-15T22:33:34.765Z,3.60
2023-01-15T22:36:03.180Z,2.70
2023-01-15T22:38:31.672Z,4.40
2023-01-15T22:41:00.530Z,3.60
2023-01-15T22:43:30.745Z,2.60
2023-01-15T22:46:09.324Z,5.37
2023-01-15T22:48:37.821Z,4.83
2023-01-15T22:51:06.868Z,2.57
2023-01-15T22:53:36.088Z,1.77
2023-01-15T22:56:04.804Z,3.50
2023-01-15T22:58:33.195Z,2.00
2023-01-15T23:01:03.439Z,1.83
2023-01-15T23:03:35.640Z,4.77
2023-01-15T23:06:05.717Z,7.33
2023-01-15T23:08:35.432Z,3.20
2023-01-15T23:11:03.925Z,3.77
2023-01-15T23:13:33.331Z,3.60
2023-01-15T23:16:03.094Z,2.87
2023-01-15T23:18:32.513Z,1.90
2023-01-15T23:21:04.049Z,2.37
2023-01-15T23:23:33.709Z,2.10
2023-01-15T23:26:02.601Z,4.93
2023-01-15T23:28:31.058Z,2.53
2023-01-15T23:30:59.455Z,3.63
2023-01-15T23:33:29.543Z,2.53
2023-01-15T23:35:59.257Z,2.70
2023-01-15T23:38:29.646Z,2.87
2023-01-15T23:40:58.028Z,3.27
2023-01-15T23:43:44.295Z,6.80
2023-01-15T23:46:33.063Z,3.23
2023-01-15T23:49:03.150Z,3.23
2023-01-15T23:51:31.716Z,1.80
2023-01-15T23:54:00.547Z,2.13
2023-01-15T23:56:29.206Z,3.07
2023-01-15T23:58:57.686Z,5.87
